Time;durP1;ratioP1;P1;durP2;ratioP2;P2;SDS_P1;SDS_P2;PMS_P1;PMS_P2;Temp;Humidity;BMP_temperature;BMP_pressure;BME280_temperature;BME280_humidity;BME280_pressure;Samples;Min_cycle;Max_cycle;Signal;HPM_P1;HPM_P2
2020/04/02 00:00:36;;;;;;;12.65;8.65;;;;;;;-1.65;53.60742;94914.45;;;;
2020/04/02 00:02:32;;;;;;;12.65;8.65;;;;;;;-1.65;53.60742;94914.45;;;;
2020/04/02 00:04:14;;;;;;;12.65;8.65;;;;;;;-1.65;53.60742;94914.45;;;;
2020/04/02 00:06:01;;;;;;;12.65;8.65;;;;;;;-1.65;53.60742;94914.45;;;;
2020/04/02 00:07:19;;;;;;;12.65;8.65;;;;;;;-1.65;53.60742;94914.45;;;;
2020/04/02 00:08:47;;;;;;;13.25;8.15;;;;;;;-1.81;52.91699;94907.48;;;;
2020/04/02 00:18:05;;;;;;;13.5;9.200001;;;;;;;-1.8;53.32617;94906.47;;;;
2020/04/02 00:19:57;;;;;;;13.5;9.200001;;;;;;;-1.8;53.32617;94906.47;;;;
2020/04/02 00:21:06;;;;;;;14.4;8.7;;;;;;;-1.94;52.82715;94893.15;;;;
2020/04/02 00:22:31;;;;;;;14.4;8.7;;;;;;;-1.94;52.82715;94893.15;;;;
2020/04/02 00:23:50;;;;;;;17.75;10.6;;;;;;;-1.92;53.2373;94888.48;;;;
2020/04/02 00:25:29;;;;;;;17.75;10.6;;;;;;;-1.92;53.2373;94888.48;;;;
2020/04/02 00:27:06;;;;;;;17.75;10.6;;;;;;;-1.92;53.2373;94888.48;;;;
2020/04/02 00:30:00;;;;;;;17.75;10.6;;;;;;;-1.92;53.2373;94888.48;;;;
2020/04/02 00:31:19;;;;;;;17.75;10.6;;;;;;;-1.92;53.2373;94888.48;;;;
2020/04/02 00:32:29;;;;;;;17.75;10.6;;;;;;;-1.92;53.2373;94888.48;;;;
2020/04/02 00:34:03;;;;;;;17.75;10.6;;;;;;;-1.92;53.2373;94888.48;;;;
2020/04/02 00:35:42;;;;;;;16.9;9.799999;;;;;;;-2.04;52.78418;94884.08;;;;
2020/04/02 00:36:51;;;;;;;16.9;9.799999;;;;;;;-2.04;52.78418;94884.08;;;;
2020/04/02 00:38:10;;;;;;;18.9;11.05;;;;;;;-2.02;53.11914;94881.67;;;;
2020/04/02 00:39:30;;;;;;;18.9;11.05;;;;;;;-2.02;53.11914;94881.67;;;;
2020/04/02 00:41:03;;;;;;;18.9;11.05;;;;;;;-2.02;53.11914;94881.67;;;;
2020/04/02 00:42:33;;;;;;;18.9;11.05;;;;;;;-2.02;53.11914;94881.67;;;;
2020/04/02 00:43:47;;;;;;;18.9;11.05;;;;;;;-2.02;53.11914;94881.67;;;;
2020/04/02 00:44:55;;;;;;;18.9;11.05;;;;;;;-2.02;53.11914;94881.67;;;;
2020/04/02 00:46:26;;;;;;;18.9;11.05;;;;;;;-2.02;53.11914;94881.67;;;;
2020/04/02 00:48:15;;;;;;;15;9.099998;;;;;;;-2.15;52.59277;94879.97;;;;
2020/04/02 00:49:36;;;;;;;15;9.099998;;;;;;;-2.15;52.59277;94879.97;;;;
2020/04/02 00:50:42;;;;;;;16.85;10.8;;;;;;;-2.13;53.0332;94876.25;;;;
2020/04/02 00:51:53;;;;;;;16.85;10.8;;;;;;;-2.13;53.0332;94876.25;;;;
2020/04/02 00:53:14;;;;;;;16.85;10.8;;;;;;;-2.13;53.0332;94876.25;;;;
2020/04/02 00:54:23;;;;;;;16.85;10.8;;;;;;;-2.13;53.0332;94876.25;;;;
2020/04/02 00:55:41;;;;;;;16.85;10.8;;;;;;;-2.13;53.0332;94876.25;;;;
2020/04/02 00:56:49;;;;;;;16.85;10.8;;;;;;;-2.13;53.0332;94876.25;;;;
2020/04/02 00:58:18;;;;;;;16.85;10.8;;;;;;;-2.13;53.0332;94876.25;;;;
2020/04/02 00:59:46;;;;;;;16.85;10.8;;;;;;;-2.13;53.0332;94876.25;;;;
2020/04/02 01:01:05;;;;;;;17;9.999999;;;;;;;-2.23;52.56055;94867.66;;;;
2020/04/02 01:02:57;;;;;;;17;9.999999;;;;;;;-2.23;52.56055;94867.66;;;;
2020/04/02 01:04:30;;;;;;;16.45;9.849999;;;;;;;-2.2;53.01465;94871.73;;;;
2020/04/02 01:09:55;;;;;;;16.45;9.849999;;;;;;;-2.2;53.01465;94871.73;;;;
2020/04/02 01:11:30;;;;;;;16.45;9.849999;;;;;;;-2.2;53.01465;94871.73;;;;
2020/04/02 01:13:09;;;;;;;16.45;9.849999;;;;;;;-2.2;53.01465;94871.73;;;;
2020/04/02 01:15:09;;;;;;;17.55;10.6;;;;;;;-2.3;52.53125;94869.85;;;;
2020/04/02 01:17:12;;;;;;;17.45;10.85;;;;;;;-2.28;53.00391;94869.09;;;;
2020/04/02 01:18:30;;;;;;;17.45;10.85;;;;;;;-2.28;53.00391;94869.09;;;;
2020/04/02 01:24:03;;;;;;;17.45;10.85;;;;;;;-2.28;53.00391;94869.09;;;;
2020/04/02 01:25:51;;;;;;;17.45;10.85;;;;;;;-2.28;53.00391;94869.09;;;;
2020/04/02 01:31:05;;;;;;;15.05;9.35;;;;;;;-2.39;52.73926;94854.49;;;;
2020/04/02 01:37:08;;;;;;;15.05;9.35;;;;;;;-2.39;52.73926;94854.49;;;;
2020/04/02 01:38:23;;;;;;;15.7;9.150002;;;;;;;-2.45;52.43066;94854.27;;;;
2020/04/02 01:40:36;;;;;;;15.7;9.150002;;;;;;;-2.45;52.43066;94854.27;;;;
2020/04/02 01:41:57;;;;;;;15.7;9.150002;;;;;;;-2.45;52.43066;94854.27;;;;
2020/04/02 01:43:29;;;;;;;15.7;9.150002;;;;;;;-2.45;52.43066;94854.27;;;;
2020/04/02 01:44:37;;;;;;;15.7;9.150002;;;;;;;-2.45;52.43066;94854.27;;;;
2020/04/02 01:46:53;;;;;;;15.7;9.150002;;;;;;;-2.45;52.43066;94854.27;;;;
2020/04/02 01:48:12;;;;;;;15.7;9.150002;;;;;;;-2.45;52.43066;94854.27;;;;
2020/04/02 01:50:26;;;;;;;15.1;8.950001;;;;;;;-2.57;52.11133;94845.92;;;;
2020/04/02 01:51:48;;;;;;;14.4;9.9;;;;;;;-2.55;52.61426;94842.21;;;;
2020/04/02 01:54:21;;;;;;;14.4;9.9;;;;;;;-2.55;52.61426;94842.21;;;;
2020/04/02 01:55:49;;;;;;;14.4;9.9;;;;;;;-2.55;52.61426;94842.21;;;;
2020/04/02 01:57:02;;;;;;;14.4;9.9;;;;;;;-2.55;52.61426;94842.21;;;;
2020/04/02 01:58:27;;;;;;;14.4;9.9;;;;;;;-2.55;52.61426;94842.21;;;;
2020/04/02 01:59:35;;;;;;;14.4;9.9;;;;;;;-2.55;52.61426;94842.21;;;;
2020/04/02 02:00:52;;;;;;;14.4;9.9;;;;;;;-2.55;52.61426;94842.21;;;;
2020/04/02 02:10:13;;;;;;;14.8;10.05;;;;;;;-2.62;52.8252;94840.73;;;;
2020/04/02 02:14:13;;;;;;;14.8;10.05;;;;;;;-2.62;52.8252;94840.73;;;;
2020/04/02 02:15:31;;;;;;;16.15;9.35;;;;;;;-2.72;52.71875;94835.3;;;;
2020/04/02 02:17:09;;;;;;;16.15;9.35;;;;;;;-2.72;52.71875;94835.3;;;;
2020/04/02 02:22:34;;;;;;;16.15;9.35;;;;;;;-2.72;52.71875;94835.3;;;;
2020/04/02 02:28:00;;;;;;;15.55;9.35;;;;;;;-2.79;52.44922;94828.13;;;;
2020/04/02 02:29:35;;;;;;;15.55;9.35;;;;;;;-2.79;52.44922;94828.13;;;;
2020/04/02 02:31:00;;;;;;;15.55;9.35;;;;;;;-2.79;52.44922;94828.13;;;;
2020/04/02 02:37:06;;;;;;;15.3;9.349999;;;;;;;-2.91;52.33105;94826.31;;;;
2020/04/02 02:39:30;;;;;;;16.1;10.2;;;;;;;-2.88;52.7832;94825.97;;;;
2020/04/02 02:41:10;;;;;;;16.1;10.2;;;;;;;-2.88;52.7832;94825.97;;;;
2020/04/02 02:42:35;;;;;;;16.1;10.2;;;;;;;-2.88;52.7832;94825.97;;;;
2020/04/02 02:47:58;;;;;;;16.1;10.2;;;;;;;-2.88;52.7832;94825.97;;;;
2020/04/02 02:49:18;;;;;;;14.1;8.549999;;;;;;;-2.95;52.59668;94820.22;;;;
2020/04/02 02:50:39;;;;;;;14.1;8.549999;;;;;;;-2.95;52.59668;94820.22;;;;
2020/04/02 02:51:50;;;;;;;14.1;8.549999;;;;;;;-2.95;52.59668;94820.22;;;;
2020/04/02 02:53:21;;;;;;;14.1;8.549999;;;;;;;-2.95;52.59668;94820.22;;;;
2020/04/02 02:54:32;;;;;;;14.1;8.549999;;;;;;;-2.95;52.59668;94820.22;;;;
2020/04/02 02:55:38;;;;;;;14.1;8.549999;;;;;;;-2.95;52.59668;94820.22;;;;
2020/04/02 02:59:45;;;;;;;14.1;8.549999;;;;;;;-2.95;52.59668;94820.22;;;;
2020/04/02 03:01:31;;;;;;;14.5;8.599999;;;;;;;-2.98;52.47754;94812.61;;;;
2020/04/02 03:06:52;;;;;;;14.5;8.599999;;;;;;;-2.98;52.47754;94812.61;;;;
2020/04/02 03:08:32;;;;;;;14.5;8.599999;;;;;;;-2.98;52.47754;94812.61;;;;
2020/04/02 03:09:59;;;;;;;14.5;8.599999;;;;;;;-2.98;52.47754;94812.61;;;;
2020/04/02 03:15:05;;;;;;;15.75;8.4;;;;;;;-3.09;52.37012;94812.94;;;;
2020/04/02 03:16:16;;;;;;;15.75;8.4;;;;;;;-3.09;52.37012;94812.94;;;;
2020/04/02 03:17:47;;;;;;;15.75;8.4;;;;;;;-3.09;52.37012;94812.94;;;;
2020/04/02 03:19:08;;;;;;;15.75;8.4;;;;;;;-3.09;52.37012;94812.94;;;;
2020/04/02 03:20:15;;;;;;;15.75;8.4;;;;;;;-3.09;52.37012;94812.94;;;;
2020/04/02 03:21:59;;;;;;;13.3;7.7;;;;;;;-3.11;52.30566;94819.7;;;;
2020/04/02 03:23:27;;;;;;;13.3;7.7;;;;;;;-3.11;52.30566;94819.7;;;;
2020/04/02 03:24:49;;;;;;;13.3;7.7;;;;;;;-3.11;52.30566;94819.7;;;;
2020/04/02 03:26:00;;;;;;;13.3;7.7;;;;;;;-3.11;52.30566;94819.7;;;;
2020/04/02 03:27:19;;;;;;;13.3;7.7;;;;;;;-3.11;52.30566;94819.7;;;;
2020/04/02 03:28:26;;;;;;;13.3;7.7;;;;;;;-3.11;52.30566;94819.7;;;;
2020/04/02 03:29:45;;;;;;;13.3;7.7;;;;;;;-3.11;52.30566;94819.7;;;;
2020/04/02 03:32:07;;;;;;;13.3;7.7;;;;;;;-3.11;52.30566;94819.7;;;;
2020/04/02 03:33:45;;;;;;;12.85;7.8;;;;;;;-3.19;52.20215;94812.7;;;;
2020/04/02 03:34:59;;;;;;;12.85;7.8;;;;;;;-3.19;52.20215;94812.7;;;;
2020/04/02 03:37:47;;;;;;;12.85;7.8;;;;;;;-3.19;52.20215;94812.7;;;;
2020/04/02 03:38:55;;;;;;;12.85;7.8;;;;;;;-3.19;52.20215;94812.7;;;;
2020/04/02 03:40:52;;;;;;;12.85;7.8;;;;;;;-3.19;52.20215;94812.7;;;;
2020/04/02 03:44:58;;;;;;;13.35;8.099999;;;;;;;-3.2;52.24316;94815.83;;;;
2020/04/02 03:46:30;;;;;;;13.35;8.099999;;;;;;;-3.2;52.24316;94815.83;;;;
2020/04/02 03:47:40;;;;;;;13.35;8.099999;;;;;;;-3.2;52.24316;94815.83;;;;
2020/04/02 03:48:44;;;;;;;13.35;8.099999;;;;;;;-3.2;52.24316;94815.83;;;;
2020/04/02 03:50:11;;;;;;;13.35;8.099999;;;;;;;-3.2;52.24316;94815.83;;;;
2020/04/02 03:51:27;;;;;;;13.35;8.099999;;;;;;;-3.2;52.24316;94815.83;;;;
2020/04/02 03:52:29;;;;;;;13.35;8.099999;;;;;;;-3.2;52.24316;94815.83;;;;
2020/04/02 03:53:38;;;;;;;11.7;7.5;;;;;;;-3.28;52.09668;94816.33;;;;
2020/04/02 03:54:42;;;;;;;11.7;7.5;;;;;;;-3.28;52.09668;94816.33;;;;
2020/04/02 03:55:55;;;;;;;15.15;8.95;;;;;;;-3.23;52.625;94813.53;;;;
2020/04/02 03:57:04;;;;;;;15.15;8.95;;;;;;;-3.23;52.625;94813.53;;;;
2020/04/02 03:58:13;;;;;;;15.15;8.95;;;;;;;-3.23;52.625;94813.53;;;;
2020/04/02 03:59:20;;;;;;;15.15;8.95;;;;;;;-3.23;52.625;94813.53;;;;
2020/04/02 04:00:33;;;;;;;15.15;8.95;;;;;;;-3.23;52.625;94813.53;;;;
2020/04/02 04:02:15;;;;;;;15.15;8.95;;;;;;;-3.23;52.625;94813.53;;;;
2020/04/02 04:03:19;;;;;;;15.15;8.95;;;;;;;-3.23;52.625;94813.53;;;;
2020/04/02 04:04:31;;;;;;;15.15;8.95;;;;;;;-3.23;52.625;94813.53;;;;
2020/04/02 04:05:33;;;;;;;15.15;8.95;;;;;;;-3.23;52.625;94813.53;;;;
2020/04/02 04:06:40;;;;;;;12.3;7.7;;;;;;;-3.25;52.55859;94805.43;;;;
2020/04/02 04:07:49;;;;;;;12.3;7.7;;;;;;;-3.25;52.55859;94805.43;;;;
2020/04/02 04:08:50;;;;;;;12.3;7.7;;;;;;;-3.25;52.55859;94805.43;;;;
2020/04/02 04:10:09;;;;;;;12.3;7.7;;;;;;;-3.25;52.55859;94805.43;;;;
2020/04/02 04:13:44;;;;;;;12.3;7.7;;;;;;;-3.25;52.55859;94805.43;;;;
2020/04/02 04:14:45;;;;;;;12.3;7.7;;;;;;;-3.25;52.55859;94805.43;;;;
2020/04/02 04:15:46;;;;;;;12.3;7.7;;;;;;;-3.25;52.55859;94805.43;;;;
2020/04/02 04:16:47;;;;;;;12.3;7.700001;;;;;;;-3.26;52.43262;94800.73;;;;
2020/04/02 04:17:52;;;;;;;12.3;7.700001;;;;;;;-3.26;52.43262;94800.73;;;;
2020/04/02 04:18:56;;;;;;;12.3;7.700001;;;;;;;-3.26;52.43262;94800.73;;;;
2020/04/02 04:19:57;;;;;;;12.3;7.700001;;;;;;;-3.26;52.43262;94800.73;;;;
2020/04/02 04:20:59;;;;;;;12.3;7.700001;;;;;;;-3.26;52.43262;94800.73;;;;
2020/04/02 04:22:00;;;;;;;12.3;7.700001;;;;;;;-3.26;52.43262;94800.73;;;;
2020/04/02 04:23:06;;;;;;;12.3;7.700001;;;;;;;-3.26;52.43262;94800.73;;;;
2020/04/02 04:24:12;;;;;;;12.3;7.700001;;;;;;;-3.26;52.43262;94800.73;;;;
2020/04/02 04:25:13;;;;;;;12.3;7.700001;;;;;;;-3.26;52.43262;94800.73;;;;
2020/04/02 04:26:19;;;;;;;12.3;7.700001;;;;;;;-3.26;52.43262;94800.73;;;;
2020/04/02 04:27:20;;;;;;;13.45;7.8;;;;;;;-3.31;52.47949;94806.49;;;;
2020/04/02 04:28:20;;;;;;;13.45;7.8;;;;;;;-3.31;52.47949;94806.49;;;;
2020/04/02 04:29:24;;;;;;;13.45;7.8;;;;;;;-3.31;52.47949;94806.49;;;;
2020/04/02 04:30:29;;;;;;;13.45;7.8;;;;;;;-3.31;52.47949;94806.49;;;;
2020/04/02 04:31:31;;;;;;;13.45;7.8;;;;;;;-3.31;52.47949;94806.49;;;;
2020/04/02 04:32:31;;;;;;;13.45;7.8;;;;;;;-3.31;52.47949;94806.49;;;;
2020/04/02 04:33:31;;;;;;;13.45;7.8;;;;;;;-3.31;52.47949;94806.49;;;;
2020/04/02 04:34:34;;;;;;;13.45;7.8;;;;;;;-3.31;52.47949;94806.49;;;;
2020/04/02 04:35:36;;;;;;;13.45;7.8;;;;;;;-3.31;52.47949;94806.49;;;;
2020/04/02 04:36:38;;;;;;;13.45;7.8;;;;;;;-3.31;52.47949;94806.49;;;;
2020/04/02 04:37:39;;;;;;;13.45;7.8;;;;;;;-3.31;52.47949;94806.49;;;;
2020/04/02 04:38:41;;;;;;;13.1;7.25;;;;;;;-3.3;52.37598;94811.22;;;;
2020/04/02 04:39:42;;;;;;;13.1;7.25;;;;;;;-3.3;52.37598;94811.22;;;;
2020/04/02 04:40:42;;;;;;;13.1;7.25;;;;;;;-3.3;52.37598;94811.22;;;;
2020/04/02 04:41:45;;;;;;;13.1;7.25;;;;;;;-3.3;52.37598;94811.22;;;;
2020/04/02 04:42:46;;;;;;;13.1;7.25;;;;;;;-3.3;52.37598;94811.22;;;;
2020/04/02 04:43:47;;;;;;;13.1;7.25;;;;;;;-3.3;52.37598;94811.22;;;;
2020/04/02 04:44:47;;;;;;;13.1;7.25;;;;;;;-3.3;52.37598;94811.22;;;;
2020/04/02 04:45:48;;;;;;;13.1;7.25;;;;;;;-3.3;52.37598;94811.22;;;;
2020/04/02 04:46:48;;;;;;;13.1;7.25;;;;;;;-3.3;52.37598;94811.22;;;;
2020/04/02 04:47:49;;;;;;;13.1;7.25;;;;;;;-3.3;52.37598;94811.22;;;;
2020/04/02 04:48:50;;;;;;;11.15;7.099999;;;;;;;-3.34;52.33887;94813.01;;;;
2020/04/02 04:49:51;;;;;;;11.15;7.099999;;;;;;;-3.34;52.33887;94813.01;;;;
2020/04/02 04:50:52;;;;;;;11.15;7.099999;;;;;;;-3.34;52.33887;94813.01;;;;
2020/04/02 04:51:52;;;;;;;11.15;7.099999;;;;;;;-3.34;52.33887;94813.01;;;;
2020/04/02 04:52:53;;;;;;;11.15;7.099999;;;;;;;-3.34;52.33887;94813.01;;;;
2020/04/02 04:53:55;;;;;;;11.15;7.099999;;;;;;;-3.34;52.33887;94813.01;;;;
2020/04/02 04:54:55;;;;;;;11.15;7.099999;;;;;;;-3.34;52.33887;94813.01;;;;
2020/04/02 04:55:56;;;;;;;11.15;7.099999;;;;;;;-3.34;52.33887;94813.01;;;;
2020/04/02 04:56:56;;;;;;;11.15;7.099999;;;;;;;-3.34;52.33887;94813.01;;;;
2020/04/02 04:57:57;;;;;;;11.15;7.099999;;;;;;;-3.34;52.33887;94813.01;;;;
2020/04/02 04:58:58;;;;;;;12.2;6.85;;;;;;;-3.28;52.53516;94812.37;;;;
2020/04/02 04:59:59;;;;;;;12.2;6.85;;;;;;;-3.28;52.53516;94812.37;;;;
2020/04/02 05:00:59;;;;;;;12.2;6.85;;;;;;;-3.28;52.53516;94812.37;;;;
2020/04/02 05:02:00;;;;;;;12.2;6.85;;;;;;;-3.28;52.53516;94812.37;;;;
2020/04/02 05:03:04;;;;;;;12.2;6.85;;;;;;;-3.28;52.53516;94812.37;;;;
2020/04/02 05:04:09;;;;;;;12.2;6.85;;;;;;;-3.28;52.53516;94812.37;;;;
2020/04/02 05:05:10;;;;;;;12.2;6.85;;;;;;;-3.28;52.53516;94812.37;;;;
2020/04/02 05:06:12;;;;;;;12.2;6.85;;;;;;;-3.28;52.53516;94812.37;;;;
2020/04/02 05:07:16;;;;;;;12.2;6.85;;;;;;;-3.28;52.53516;94812.37;;;;
2020/04/02 05:08:17;;;;;;;12.2;6.85;;;;;;;-3.28;52.53516;94812.37;;;;
2020/04/02 05:09:20;;;;;;;12.2;6.85;;;;;;;-3.28;52.53516;94812.37;;;;
2020/04/02 05:10:26;;;;;;;14.85;8;;;;;;;-3.22;52.44824;94813.95;;;;
2020/04/02 05:11:28;;;;;;;14.85;8;;;;;;;-3.22;52.44824;94813.95;;;;
2020/04/02 05:12:28;;;;;;;14.85;8;;;;;;;-3.22;52.44824;94813.95;;;;
2020/04/02 05:13:29;;;;;;;14.85;8;;;;;;;-3.22;52.44824;94813.95;;;;
2020/04/02 05:14:30;;;;;;;14.85;8;;;;;;;-3.22;52.44824;94813.95;;;;
2020/04/02 05:15:30;;;;;;;14.85;8;;;;;;;-3.22;52.44824;94813.95;;;;
2020/04/02 05:16:31;;;;;;;14.85;8;;;;;;;-3.22;52.44824;94813.95;;;;
2020/04/02 05:17:32;;;;;;;14.85;8;;;;;;;-3.22;52.44824;94813.95;;;;
2020/04/02 05:18:33;;;;;;;14.85;8;;;;;;;-3.22;52.44824;94813.95;;;;
2020/04/02 05:19:33;;;;;;;14.85;8;;;;;;;-3.22;52.44824;94813.95;;;;
2020/04/02 05:20:34;;;;;;;11;6.650001;;;;;;;-3.07;52.31055;94823.26;;;;
2020/04/02 05:21:34;;;;;;;11;6.650001;;;;;;;-3.07;52.31055;94823.26;;;;
2020/04/02 05:22:35;;;;;;;11;6.650001;;;;;;;-3.07;52.31055;94823.26;;;;
2020/04/02 05:23:37;;;;;;;11;6.650001;;;;;;;-3.07;52.31055;94823.26;;;;
2020/04/02 05:24:39;;;;;;;11;6.650001;;;;;;;-3.07;52.31055;94823.26;;;;
2020/04/02 05:25:39;;;;;;;11;6.650001;;;;;;;-3.07;52.31055;94823.26;;;;
2020/04/02 05:26:40;;;;;;;11;6.650001;;;;;;;-3.07;52.31055;94823.26;;;;
2020/04/02 05:27:44;;;;;;;11;6.650001;;;;;;;-3.07;52.31055;94823.26;;;;
2020/04/02 05:28:44;;;;;;;11;6.650001;;;;;;;-3.07;52.31055;94823.26;;;;
2020/04/02 05:29:45;;;;;;;11;6.650001;;;;;;;-3.07;52.31055;94823.26;;;;
2020/04/02 05:30:45;;;;;;;11.65;7;;;;;;;-2.93;52.49609;94825.65;;;;
2020/04/02 05:31:46;;;;;;;11.65;7;;;;;;;-2.93;52.49609;94825.65;;;;
2020/04/02 05:32:46;;;;;;;11.65;7;;;;;;;-2.93;52.49609;94825.65;;;;
2020/04/02 05:33:48;;;;;;;11.65;7;;;;;;;-2.93;52.49609;94825.65;;;;
2020/04/02 05:34:48;;;;;;;11.65;7;;;;;;;-2.93;52.49609;94825.65;;;;
2020/04/02 05:35:49;;;;;;;11.65;7;;;;;;;-2.93;52.49609;94825.65;;;;
2020/04/02 05:36:50;;;;;;;11.65;7;;;;;;;-2.93;52.49609;94825.65;;;;
2020/04/02 05:37:50;;;;;;;11.65;7;;;;;;;-2.93;52.49609;94825.65;;;;
2020/04/02 05:38:51;;;;;;;11.65;7;;;;;;;-2.93;52.49609;94825.65;;;;
2020/04/02 05:39:51;;;;;;;11.65;7;;;;;;;-2.93;52.49609;94825.65;;;;
2020/04/02 05:40:52;;;;;;;11.65;7;;;;;;;-2.93;52.49609;94825.65;;;;
2020/04/02 05:41:53;;;;;;;12.25;7.150001;;;;;;;-2.63;52.24023;94829.02;;;;
2020/04/02 05:42:53;;;;;;;12.25;7.150001;;;;;;;-2.63;52.24023;94829.02;;;;
2020/04/02 05:43:53;;;;;;;12.25;7.150001;;;;;;;-2.63;52.24023;94829.02;;;;
2020/04/02 05:44:54;;;;;;;12.25;7.150001;;;;;;;-2.63;52.24023;94829.02;;;;
2020/04/02 05:45:54;;;;;;;12.25;7.150001;;;;;;;-2.63;52.24023;94829.02;;;;
2020/04/02 05:46:55;;;;;;;12.25;7.150001;;;;;;;-2.63;52.24023;94829.02;;;;
2020/04/02 05:47:56;;;;;;;12.25;7.150001;;;;;;;-2.63;52.24023;94829.02;;;;
2020/04/02 05:48:56;;;;;;;12.25;7.150001;;;;;;;-2.63;52.24023;94829.02;;;;
2020/04/02 05:49:57;;;;;;;12.25;7.150001;;;;;;;-2.63;52.24023;94829.02;;;;
2020/04/02 05:50:58;;;;;;;12.25;7.150001;;;;;;;-2.63;52.24023;94829.02;;;;
2020/04/02 05:51:59;;;;;;;11.85;7.200001;;;;;;;-2.33;52.02637;94840.19;;;;
2020/04/02 05:52:59;;;;;;;11.85;7.200001;;;;;;;-2.33;52.02637;94840.19;;;;
2020/04/02 05:54:38;;;;;;;11.85;7.200001;;;;;;;-2.33;52.02637;94840.19;;;;
2020/04/02 05:55:39;;;;;;;13.05;7.950001;;;;;;;-2.18;52.43066;94839.4;;;;
2020/04/02 05:56:39;;;;;;;13.05;7.950001;;;;;;;-2.18;52.43066;94839.4;;;;
2020/04/02 05:57:40;;;;;;;13.05;7.950001;;;;;;;-2.18;52.43066;94839.4;;;;
2020/04/02 05:58:40;;;;;;;13.05;7.950001;;;;;;;-2.18;52.43066;94839.4;;;;
2020/04/02 05:59:41;;;;;;;13.05;7.950001;;;;;;;-2.18;52.43066;94839.4;;;;
2020/04/02 06:00:43;;;;;;;13.05;7.950001;;;;;;;-2.18;52.43066;94839.4;;;;
2020/04/02 06:01:46;;;;;;;13.05;7.950001;;;;;;;-2.18;52.43066;94839.4;;;;
2020/04/02 06:02:47;;;;;;;13.05;7.950001;;;;;;;-2.18;52.43066;94839.4;;;;
2020/04/02 06:03:47;;;;;;;13.05;7.950001;;;;;;;-2.18;52.43066;94839.4;;;;
2020/04/02 06:04:48;;;;;;;13.05;7.950001;;;;;;;-2.18;52.43066;94839.4;;;;
2020/04/02 06:05:48;;;;;;;13.75;7.5;;;;;;;-1.75;52.09668;94851.25;;;;
2020/04/02 06:06:55;;;;;;;13.75;7.5;;;;;;;-1.75;52.09668;94851.25;;;;
2020/04/02 06:07:56;;;;;;;18.3;8.8;;;;;;;-1.58;52.52734;94854.13;;;;
2020/04/02 06:08:56;;;;;;;18.3;8.8;;;;;;;-1.58;52.52734;94854.13;;;;
2020/04/02 06:09:57;;;;;;;18.3;8.8;;;;;;;-1.58;52.52734;94854.13;;;;
2020/04/02 06:10:57;;;;;;;18.3;8.8;;;;;;;-1.58;52.52734;94854.13;;;;
2020/04/02 06:11:58;;;;;;;18.3;8.8;;;;;;;-1.58;52.52734;94854.13;;;;
2020/04/02 06:12:58;;;;;;;18.3;8.8;;;;;;;-1.58;52.52734;94854.13;;;;
2020/04/02 06:14:00;;;;;;;18.3;8.8;;;;;;;-1.58;52.52734;94854.13;;;;
2020/04/02 06:15:00;;;;;;;18.3;8.8;;;;;;;-1.58;52.52734;94854.13;;;;
2020/04/02 06:16:01;;;;;;;18.3;8.8;;;;;;;-1.58;52.52734;94854.13;;;;
2020/04/02 06:17:01;;;;;;;18.3;8.8;;;;;;;-1.58;52.52734;94854.13;;;;
2020/04/02 06:18:04;;;;;;;18.3;8.8;;;;;;;-1.58;52.52734;94854.13;;;;
2020/04/02 06:19:06;;;;;;;12.35;7.650001;;;;;;;-1.07;52.25391;94848.28;;;;
2020/04/02 06:20:07;;;;;;;12.35;7.650001;;;;;;;-1.07;52.25391;94848.28;;;;
2020/04/02 06:21:08;;;;;;;12.9;8.149999;;;;;;;-0.9;52.7373;94853.28;;;;
2020/04/02 06:22:16;;;;;;;12.9;8.149999;;;;;;;-0.9;52.7373;94853.28;;;;
2020/04/02 06:23:17;;;;;;;12.9;8.149999;;;;;;;-0.9;52.7373;94853.28;;;;
2020/04/02 06:24:20;;;;;;;12.9;8.149999;;;;;;;-0.9;52.7373;94853.28;;;;
2020/04/02 06:25:22;;;;;;;12.9;8.149999;;;;;;;-0.9;52.7373;94853.28;;;;
2020/04/02 06:26:26;;;;;;;12.9;8.149999;;;;;;;-0.9;52.7373;94853.28;;;;
2020/04/02 06:27:27;;;;;;;12.9;8.149999;;;;;;;-0.9;52.7373;94853.28;;;;
2020/04/02 06:28:28;;;;;;;12.9;8.149999;;;;;;;-0.9;52.7373;94853.28;;;;
2020/04/02 06:29:29;;;;;;;12.9;8.149999;;;;;;;-0.9;52.7373;94853.28;;;;
2020/04/02 06:30:30;;;;;;;12.9;8.149999;;;;;;;-0.9;52.7373;94853.28;;;;
2020/04/02 06:31:30;;;;;;;12.9;8.149999;;;;;;;-0.9;52.7373;94853.28;;;;
2020/04/02 06:32:31;;;;;;;12.05;7.349999;;;;;;;-0.04;52.31738;94838.26;;;;
2020/04/02 06:33:32;;;;;;;12.05;7.349999;;;;;;;-0.04;52.31738;94838.26;;;;
2020/04/02 06:34:33;;;;;;;10.4;7.849999;;;;;;;0.37;52.58789;94835.04;;;;
2020/04/02 06:35:33;;;;;;;10.4;7.849999;;;;;;;0.37;52.58789;94835.04;;;;
2020/04/02 06:36:34;;;;;;;10.4;7.849999;;;;;;;0.37;52.58789;94835.04;;;;
2020/04/02 06:37:35;;;;;;;12.7;8.85;;;;;;;0.87;52.93555;94828.8;;;;
2020/04/02 06:38:36;;;;;;;12.7;8.85;;;;;;;0.87;52.93555;94828.8;;;;
2020/04/02 06:39:37;;;;;;;11.55;8.200002;;;;;;;1.39;53.2334;94831.98;;;;
2020/04/02 06:40:39;;;;;;;11.55;8.200002;;;;;;;1.39;53.2334;94831.98;;;;
2020/04/02 06:41:40;;;;;;;11.55;8.200002;;;;;;;1.39;53.2334;94831.98;;;;
2020/04/02 06:42:40;;;;;;;10.8;8;;;;;;;1.92;53.21289;94836.39;;;;
2020/04/02 06:43:43;;;;;;;10.8;8;;;;;;;1.92;53.21289;94836.39;;;;
2020/04/02 06:44:44;;;;;;;10.8;8;;;;;;;1.92;53.21289;94836.39;;;;
2020/04/02 06:45:50;;;;;;;10.6;8;;;;;;;2.43;53.08789;94831.05;;;;
2020/04/02 06:46:51;;;;;;;10.6;8;;;;;;;2.43;53.08789;94831.05;;;;
2020/04/02 06:47:51;;;;;;;9.9;7.65;;;;;;;2.92;52.90527;94826.76;;;;
2020/04/02 06:48:52;;;;;;;9.9;7.65;;;;;;;2.92;52.90527;94826.76;;;;
2020/04/02 06:49:53;;;;;;;9.9;7.65;;;;;;;2.92;52.90527;94826.76;;;;
2020/04/02 06:50:53;;;;;;;9.999999;7.45;;;;;;;3.4;52.70898;94827.09;;;;
2020/04/02 06:51:54;;;;;;;9.999999;7.45;;;;;;;3.4;52.70898;94827.09;;;;
2020/04/02 06:52:54;;;;;;;12.7;8;;;;;;;3.86;52.26855;94825.26;;;;
2020/04/02 06:53:55;;;;;;;12.7;8;;;;;;;3.86;52.26855;94825.26;;;;
2020/04/02 06:54:55;;;;;;;12.7;8;;;;;;;3.86;52.26855;94825.26;;;;
2020/04/02 06:55:56;;;;;;;9.200001;7.599999;;;;;;;4.31;51.8457;94828.9;;;;
2020/04/02 06:56:56;;;;;;;9.200001;7.599999;;;;;;;4.31;51.8457;94828.9;;;;
2020/04/02 06:57:57;;;;;;;9.200001;7.599999;;;;;;;4.31;51.8457;94828.9;;;;
2020/04/02 06:58:57;;;;;;;9.400001;7.45;;;;;;;4.77;51.41211;94826.49;;;;
2020/04/02 06:59:58;;;;;;;9.400001;7.45;;;;;;;4.77;51.41211;94826.49;;;;
2020/04/02 07:00:58;;;;;;;8.550001;7;;;;;;;5.2;51.02637;94832.87;;;;
2020/04/02 07:01:59;;;;;;;8.550001;7;;;;;;;5.2;51.02637;94832.87;;;;
2020/04/02 07:03:05;;;;;;;8.550001;7;;;;;;;5.2;51.02637;94832.87;;;;
2020/04/02 07:04:07;;;;;;;9.999999;7.799999;;;;;;;5.61;50.55371;94827.92;;;;
2020/04/02 07:05:10;;;;;;;9.999999;7.799999;;;;;;;5.61;50.55371;94827.92;;;;
2020/04/02 07:06:42;;;;;;;10.55;8.000002;;;;;;;5.99;50.17188;94830.93;;;;
2020/04/02 07:07:43;;;;;;;10.55;8.000002;;;;;;;5.99;50.17188;94830.93;;;;
2020/04/02 07:08:44;;;;;;;10.3;7.699999;;;;;;;6.32;49.75098;94827.03;;;;
2020/04/02 07:09:44;;;;;;;10.3;7.699999;;;;;;;6.32;49.75098;94827.03;;;;
2020/04/02 07:11:06;;;;;;;10.3;7.699999;;;;;;;6.32;49.75098;94827.03;;;;
2020/04/02 07:12:25;;;;;;;10.3;7.799999;;;;;;;6.62;49.39063;94829.71;;;;
2020/04/02 07:13:47;;;;;;;10.3;7.799999;;;;;;;6.62;49.39063;94829.71;;;;
2020/04/02 07:15:07;;;;;;;9.200001;7.900001;;;;;;;6.9;48.99512;94830.13;;;;
2020/04/02 07:16:12;;;;;;;9.200001;7.900001;;;;;;;6.9;48.99512;94830.13;;;;
2020/04/02 07:17:53;;;;;;;8.950001;7.799999;;;;;;;7.14;48.54102;94830.16;;;;
2020/04/02 07:19:09;;;;;;;9.35;7.599999;;;;;;;7.37;48.16113;94827.45;;;;
2020/04/02 07:20:16;;;;;;;9.35;7.599999;;;;;;;7.37;48.16113;94827.45;;;;
2020/04/02 07:21:28;;;;;;;9.35;7.599999;;;;;;;7.37;48.16113;94827.45;;;;
2020/04/02 07:22:29;;;;;;;8.599999;7.299999;;;;;;;7.61;47.89746;94822.19;;;;
2020/04/02 07:23:32;;;;;;;8.599999;7.299999;;;;;;;7.61;47.89746;94822.19;;;;
2020/04/02 07:24:36;;;;;;;8.000001;7.200001;;;;;;;7.8;47.52246;94820.14;;;;
2020/04/02 07:25:36;;;;;;;8.000001;7.200001;;;;;;;7.8;47.52246;94820.14;;;;
2020/04/02 07:27:00;;;;;;;8.000001;7.200001;;;;;;;7.8;47.52246;94820.14;;;;
2020/04/02 07:28:16;;;;;;;9.1;7.45;;;;;;;7.99;47.125;94817.24;;;;
2020/04/02 07:29:17;;;;;;;9.1;7.45;;;;;;;7.99;47.125;94817.24;;;;
2020/04/02 07:30:23;;;;;;;10.15;7.75;;;;;;;8.17;46.89746;94814.87;;;;
2020/04/02 07:31:24;;;;;;;10.15;7.75;;;;;;;8.17;46.89746;94814.87;;;;
2020/04/02 07:32:26;;;;;;;9.549999;8.15;;;;;;;8.36;46.63965;94818.18;;;;
2020/04/02 07:33:28;;;;;;;9.549999;8.15;;;;;;;8.36;46.63965;94818.18;;;;
2020/04/02 07:34:41;;;;;;;9.549999;8.15;;;;;;;8.36;46.63965;94818.18;;;;
2020/04/02 07:35:42;;;;;;;10.05;7.65;;;;;;;8.59;46.4502;94811.58;;;;
2020/04/02 07:36:43;;;;;;;10.05;7.65;;;;;;;8.59;46.4502;94811.58;;;;
2020/04/02 07:37:44;;;;;;;10.1;7.9;;;;;;;8.89;46.36426;94813.59;;;;
2020/04/02 07:38:45;;;;;;;10.1;7.9;;;;;;;8.89;46.36426;94813.59;;;;
2020/04/02 07:39:45;;;;;;;10.1;7.9;;;;;;;8.89;46.36426;94813.59;;;;
2020/04/02 07:41:20;;;;;;;9.200001;8.200001;;;;;;;9.38;45.82324;94813.51;;;;
2020/04/02 07:42:28;;;;;;;9.200001;8.200001;;;;;;;9.38;45.82324;94813.51;;;;
2020/04/02 07:43:29;;;;;;;9.25;8.25;;;;;;;10.15;44.55762;94806.58;;;;
2020/04/02 07:44:29;;;;;;;9.25;8.25;;;;;;;10.15;44.55762;94806.58;;;;
2020/04/02 07:45:30;;;;;;;9.25;8.25;;;;;;;10.15;44.55762;94806.58;;;;
2020/04/02 07:46:30;;;;;;;9.25;8.25;;;;;;;10.15;44.55762;94806.58;;;;
2020/04/02 07:47:43;;;;;;;9.25;8.25;;;;;;;10.15;44.55762;94806.58;;;;